Time;durP1;ratioP1;P1;durP2;ratioP2;P2;SDS_P1;SDS_P2;PMS_P1;PMS_P2;Temp;Humidity;BMP_temperature;BMP_pressure;BME280_temperature;BME280_humidity;BME280_pressure;Samples;Min_cycle;Max_cycle;Signal;HPM_P1;HPM_P2
2023/01/09 00:00:40;;;;;;;4.73;4.23;;;5.80;99.90;5.70;99077.00;;;;4889819;28;95835;-64
2023/01/09 00:03:06;;;;;;;6.37;5.10;;;5.80;99.90;5.70;99062.00;;;;4882750;28;121359;-64
2023/01/09 00:05:31;;;;;;;7.77;5.20;;;5.80;99.90;5.70;99066.00;;;;4898588;28;110524;-65
2023/01/09 00:07:57;;;;;;;11.30;6.63;;;6.30;99.90;5.70;99058.00;;;;4903613;28;109864;-65
2023/01/09 00:10:23;;;;;;;7.30;5.03;;;6.10;99.90;5.70;99044.00;;;;4901198;28;121559;-66
2023/01/09 00:12:48;;;;;;;5.77;5.17;;;6.70;99.90;5.70;99042.00;;;;4905899;28;121316;-65
2023/01/09 00:15:14;;;;;;;6.57;4.43;;;5.70;99.90;5.70;99038.00;;;;4906350;28;103095;-66
2023/01/09 00:17:40;;;;;;;8.03;5.83;;;5.80;99.90;5.70;99032.00;;;;4889049;28;107488;-65
2023/01/09 00:20:08;;;;;;;8.53;5.80;;;5.80;99.90;5.80;99042.00;;;;4904273;28;115911;-65
2023/01/09 00:22:35;;;;;;;5.67;3.67;;;6.00;99.90;5.80;99035.00;;;;4892004;28;93602;-66
2023/01/09 00:25:01;;;;;;;9.43;4.40;;;5.90;99.90;5.80;99032.00;;;;4907940;28;92147;-66
2023/01/09 00:27:31;;;;;;;4.70;4.10;;;6.10;99.90;5.90;99027.00;;;;4888287;28;107654;-65
2023/01/09 00:29:57;;;;;;;7.47;3.87;;;6.80;99.90;5.90;99031.00;;;;4907889;28;93065;-65
2023/01/09 00:32:23;;;;;;;5.67;4.60;;;6.00;99.90;5.90;99032.00;;;;4906179;28;94164;-66
2023/01/09 00:34:49;;;;;;;7.00;4.80;;;6.00;99.90;5.90;99025.00;;;;4904947;28;107895;-66
2023/01/09 00:37:14;;;;;;;6.70;4.97;;;6.60;99.90;5.90;99026.00;;;;4904989;28;108754;-66
2023/01/09 00:39:41;;;;;;;7.60;4.23;;;6.00;99.90;5.90;99017.00;;;;4906903;28;121582;-65
2023/01/09 00:42:13;;;;;;;10.63;4.87;;;6.00;99.90;5.90;99021.00;;;;4906237;28;93859;-67
2023/01/09 00:44:48;;;;;;;7.87;4.93;;;6.00;99.90;5.90;99017.00;;;;4889791;28;93041;-65
2023/01/09 00:47:30;;;;;;;9.47;5.33;;;6.10;99.90;5.90;99015.00;;;;4885538;28;92875;-65
2023/01/09 00:50:03;;;;;;;8.33;3.70;;;6.10;99.90;5.80;99017.00;;;;4889867;28;114658;-66
2023/01/09 00:52:34;;;;;;;7.23;4.10;;;5.90;99.90;5.80;99003.00;;;;4885180;28;93073;-66
2023/01/09 00:55:01;;;;;;;5.70;4.90;;;6.00;99.90;5.80;99007.00;;;;4908303;28;92939;-65
2023/01/09 00:57:27;;;;;;;9.30;6.43;;;6.00;99.90;5.80;98996.00;;;;4903944;28;93842;-67
2023/01/09 00:59:53;;;;;;;10.17;5.83;;;6.80;99.90;5.80;98992.00;;;;4906446;28;122767;-64
2023/01/09 01:02:18;;;;;;;10.33;5.63;;;5.90;99.90;5.80;98986.00;;;;4905593;28;121784;-66
2023/01/09 01:07:37;;;;;;;6.13;4.07;;;6.00;99.90;5.80;98993.00;;;;4903605;28;92659;-65
2023/01/09 01:10:09;;;;;;;6.23;3.93;;;6.00;99.90;5.80;98973.00;;;;4904490;28;92835;-65
2023/01/09 01:12:35;;;;;;;8.53;4.57;;;6.00;99.90;5.90;98977.00;;;;4881215;28;93487;-65
2023/01/09 01:15:02;;;;;;;7.77;4.57;;;6.00;99.90;5.90;98970.00;;;;4909704;28;92338;-65
2023/01/09 01:17:28;;;;;;;10.23;5.07;;;6.00;99.90;5.90;98972.00;;;;4905996;28;92858;-65
2023/01/09 01:19:54;;;;;;;8.17;4.10;;;6.00;99.90;5.90;98968.00;;;;4903610;28;121531;-66
2023/01/09 01:22:19;;;;;;;5.23;4.43;;;6.90;99.90;5.90;98963.00;;;;4903442;28;93755;-67
2023/01/09 01:24:45;;;;;;;11.33;4.67;;;6.40;99.90;5.90;98958.00;;;;4901184;28;109892;-66
2023/01/09 01:27:11;;;;;;;11.40;5.90;;;6.00;99.90;5.90;98967.00;;;;4902929;28;106207;-66
2023/01/09 01:29:36;;;;;;;5.37;4.80;;;5.70;99.90;5.90;98951.00;;;;4904520;28;122940;-67
2023/01/09 01:32:02;;;;;;;9.00;5.20;;;6.10;99.90;5.90;98954.00;;;;4902721;28;120891;-66
2023/01/09 01:34:29;;;;;;;6.87;3.50;;;6.10;99.90;5.90;98943.00;;;;4909361;28;93238;-65
2023/01/09 01:36:54;;;;;;;8.80;4.27;;;6.00;99.90;5.90;98940.00;;;;4906485;28;93097;-65
2023/01/09 01:39:20;;;;;;;5.40;4.37;;;6.00;99.90;5.90;98949.00;;;;4906090;28;121341;-65
2023/01/09 01:41:46;;;;;;;8.37;5.67;;;6.10;99.90;5.90;98949.00;;;;4905478;28;120627;-67
2023/01/09 01:44:55;;;;;;;9.23;5.53;;;6.00;99.90;5.90;98951.00;;;;4906033;28;95578;-66
2023/01/09 01:47:34;;;;;;;6.23;4.87;;;6.10;99.90;5.90;98945.00;;;;4894002;28;93778;-65
2023/01/09 01:50:07;;;;;;;9.20;5.23;;;6.70;99.90;5.90;98943.00;;;;4865400;28;93255;-66
2023/01/09 01:52:35;;;;;;;7.13;4.27;;;6.00;99.90;5.90;98927.00;;;;4907929;28;95080;-65
2023/01/09 01:55:06;;;;;;;5.63;4.73;;;6.80;99.90;5.90;98931.00;;;;4912380;28;93189;-66
2023/01/09 01:57:33;;;;;;;7.13;5.73;;;6.00;99.90;5.90;98926.00;;;;4891095;28;92844;-67
2023/01/09 02:00:02;;;;;;;8.03;4.33;;;6.20;99.90;5.90;98930.00;;;;4892568;28;96823;-66
2023/01/09 02:02:30;;;;;;;11.83;5.20;;;6.10;99.90;5.90;98924.00;;;;4892605;28;92933;-65
2023/01/09 02:04:57;;;;;;;8.73;5.23;;;6.00;99.90;5.90;98918.00;;;;4896426;28;92171;-66
2023/01/09 02:07:23;;;;;;;6.93;4.93;;;6.60;99.90;6.00;98920.00;;;;4908499;28;101449;-66
2023/01/09 02:09:49;;;;;;;5.27;4.37;;;6.10;99.90;6.00;98915.00;;;;4907142;28;113293;-66
2023/01/09 02:12:22;;;;;;;7.03;4.30;;;6.10;99.90;6.00;98907.00;;;;4888795;28;94111;-66
2023/01/09 02:15:07;;;;;;;8.53;3.80;;;6.30;99.90;6.00;98901.00;;;;4909807;28;93167;-66
2023/01/09 02:18:18;;;;;;;6.30;4.97;;;6.10;99.90;5.90;98904.00;;;;4892804;28;93100;-66
2023/01/09 02:21:08;;;;;;;6.93;4.77;;;6.10;99.90;5.90;98899.00;;;;4897331;28;92921;-66
2023/01/09 02:24:07;;;;;;;5.30;3.67;;;6.10;99.90;5.90;98889.00;;;;4907574;28;93301;-65
2023/01/09 02:27:07;;;;;;;12.20;5.07;;;6.00;99.90;5.90;98898.00;;;;4905242;28;92992;-66
2023/01/09 02:30:19;;;;;;;6.00;3.83;;;6.10;99.90;5.90;98895.00;;;;4909003;28;92947;-66
2023/01/09 02:33:12;;;;;;;6.20;4.47;;;6.10;99.90;5.90;98885.00;;;;4904080;28;92038;-65
2023/01/09 02:36:01;;;;;;;8.43;4.70;;;6.00;99.90;5.90;98878.00;;;;4907094;28;92971;-66
2023/01/09 02:39:14;;;;;;;9.83;4.73;;;6.10;99.90;5.90;98870.00;;;;4883002;28;92986;-65
2023/01/09 02:41:59;;;;;;;7.47;4.77;;;6.00;99.90;5.90;98868.00;;;;4903605;28;94874;-66
2023/01/09 02:44:28;;;;;;;7.00;5.87;;;6.10;99.90;5.90;98865.00;;;;4906297;28;92755;-65
2023/01/09 02:47:30;;;;;;;10.57;5.60;;;6.20;99.90;5.90;98860.00;;;;4904858;28;93066;-66
2023/01/09 02:50:01;;;;;;;8.63;3.97;;;6.60;99.90;6.00;98866.00;;;;4905066;28;92794;-66
2023/01/09 02:52:51;;;;;;;11.60;3.77;;;6.10;99.90;6.00;98867.00;;;;4891534;28;93322;-65
2023/01/09 02:55:46;;;;;;;10.53;4.87;;;6.20;99.90;6.00;98866.00;;;;4887491;28;94019;-65
2023/01/09 02:58:40;;;;;;;11.77;5.50;;;6.20;99.90;6.00;98871.00;;;;4907241;28;95283;-66
2023/01/09 03:01:51;;;;;;;7.40;4.93;;;6.70;99.90;6.10;98867.00;;;;4889825;28;92465;-65
2023/01/09 03:04:54;;;;;;;6.70;5.17;;;6.20;99.90;6.10;98862.00;;;;4882981;28;101648;-66
2023/01/09 03:07:47;;;;;;;7.90;4.10;;;6.60;99.90;6.10;98870.00;;;;4889172;28;93086;-64
2023/01/09 03:11:00;;;;;;;13.00;4.70;;;6.30;99.90;6.20;98862.00;;;;4890338;28;94121;-65
2023/01/09 03:13:31;;;;;;;6.53;4.30;;;6.40;99.90;6.30;98861.00;;;;4879022;28;100587;-65
2023/01/09 03:15:59;;;;;;;4.03;3.67;;;6.30;99.90;6.30;98849.00;;;;4892494;28;94087;-65
2023/01/09 03:18:27;;;;;;;7.37;4.87;;;6.40;99.90;6.40;98846.00;;;;4887186;28;93383;-65
2023/01/09 03:20:54;;;;;;;9.17;5.47;;;6.50;99.90;6.50;98856.00;;;;4890306;28;108051;-65
2023/01/09 03:23:20;;;;;;;7.27;4.30;;;6.50;99.90;6.50;98859.00;;;;4901276;28;93157;-65
2023/01/09 03:25:46;;;;;;;7.80;4.60;;;7.20;99.90;6.50;98851.00;;;;4908728;28;92970;-65
2023/01/09 03:28:27;;;;;;;8.70;5.20;;;7.20;99.90;6.60;98852.00;;;;4898626;28;122570;-64
2023/01/09 03:30:53;;;;;;;6.60;4.50;;;6.70;99.90;6.60;98845.00;;;;4890828;28;93060;-65
2023/01/09 03:33:19;;;;;;;7.63;4.53;;;7.00;99.90;6.60;98844.00;;;;4900618;28;93104;-66
2023/01/09 03:35:45;;;;;;;6.83;4.73;;;6.80;99.90;6.70;98848.00;;;;4904289;28;93960;-66
2023/01/09 03:38:10;;;;;;;6.60;4.80;;;7.20;99.90;6.70;98845.00;;;;4905602;28;122930;-66
2023/01/09 03:40:36;;;;;;;11.50;4.83;;;6.80;99.90;6.70;98845.00;;;;4902456;28;122498;-65
2023/01/09 03:43:02;;;;;;;10.10;5.57;;;6.80;99.90;6.70;98838.00;;;;4900650;28;92875;-65
2023/01/09 03:45:28;;;;;;;9.07;5.27;;;6.90;99.90;6.70;98836.00;;;;4905564;28;92869;-66
2023/01/09 03:47:53;;;;;;;8.83;5.63;;;6.80;99.90;6.70;98832.00;;;;4903974;28;121744;-66
2023/01/09 03:50:19;;;;;;;6.97;4.53;;;6.80;99.90;6.70;98835.00;;;;4908125;28;93107;-64
2023/01/09 03:52:44;;;;;;;7.03;4.57;;;7.20;99.90;6.70;98830.00;;;;4905649;28;109148;-65
2023/01/09 03:55:10;;;;;;;9.40;5.30;;;6.90;99.90;6.70;98843.00;;;;4892177;28;108745;-65
2023/01/09 03:57:36;;;;;;;9.17;6.03;;;6.80;99.90;6.70;98833.00;;;;4904631;28;122503;-65
2023/01/09 04:00:03;;;;;;;10.30;5.10;;;6.90;99.90;6.60;98836.00;;;;4907126;28;122638;-67
2023/01/09 04:02:28;;;;;;;9.67;5.47;;;6.50;99.90;6.60;98834.00;;;;4907203;28;92882;-69
2023/01/09 04:04:54;;;;;;;8.43;5.03;;;6.70;99.90;6.60;98839.00;;;;4908321;28;99752;-68
2023/01/09 04:07:20;;;;;;;8.73;5.17;;;6.70;99.90;6.50;98833.00;;;;4905687;28;121654;-66
2023/01/09 04:09:45;;;;;;;9.70;5.70;;;6.90;99.90;6.40;98840.00;;;;4907667;28;92888;-66
2023/01/09 04:12:11;;;;;;;6.17;4.63;;;7.10;99.90;6.40;98830.00;;;;4909264;28;109884;-68
2023/01/09 04:14:37;;;;;;;8.47;4.73;;;6.60;99.90;6.30;98833.00;;;;4909075;28;108834;-69
2023/01/09 04:17:02;;;;;;;6.43;4.27;;;7.20;99.90;6.20;98840.00;;;;4915929;28;92225;-67
2023/01/09 04:19:28;;;;;;;8.83;4.93;;;7.00;99.90;6.10;98844.00;;;;4913777;28;122403;-69
2023/01/09 04:21:54;;;;;;;7.03;4.83;;;7.10;99.90;6.10;98842.00;;;;4922856;28;108793;-70
2023/01/09 04:24:19;;;;;;;9.50;6.00;;;6.90;99.90;6.00;98835.00;;;;4909467;28;107696;-66
2023/01/09 04:26:45;;;;;;;6.03;4.30;;;6.70;99.90;5.90;98839.00;;;;4904135;28;121385;-67
2023/01/09 04:29:11;;;;;;;6.43;5.13;;;6.20;99.90;5.90;98840.00;;;;4906269;28;122884;-68
2023/01/09 04:31:36;;;;;;;4.60;4.20;;;6.00;99.90;5.80;98831.00;;;;4905359;28;92813;-67
2023/01/09 04:34:02;;;;;;;8.50;5.87;;;6.20;99.90;5.80;98840.00;;;;4907484;28;108972;-67
2023/01/09 04:36:27;;;;;;;6.53;5.23;;;6.20;99.90;5.70;98841.00;;;;4904313;28;122945;-68
2023/01/09 04:38:53;;;;;;;5.63;3.93;;;6.00;99.90;5.70;98838.00;;;;4906401;28;94313;-68
2023/01/09 04:44:04;;;;;;;8.90;5.73;;;6.60;99.90;5.70;98829.00;;;;4909752;28;93976;-65
2023/01/09 04:46:29;;;;;;;10.57;7.33;;;5.90;99.90;5.70;98819.00;;;;4906470;28;94389;-65
2023/01/09 04:48:55;;;;;;;6.20;5.20;;;5.90;99.90;5.70;98821.00;;;;4905989;28;96091;-69
2023/01/09 04:51:21;;;;;;;7.10;4.77;;;5.90;99.90;5.70;98817.00;;;;4904983;28;110834;-67
2023/01/09 04:53:46;;;;;;;6.50;5.37;;;6.30;99.90;5.70;98807.00;;;;4904263;28;107948;-67
2023/01/09 04:56:12;;;;;;;7.10;4.93;;;5.90;99.90;5.70;98787.00;;;;4906504;28;121733;-69
2023/01/09 04:58:38;;;;;;;9.00;5.50;;;5.80;99.90;5.70;98792.00;;;;4890636;28;121872;-69
2023/01/09 05:01:03;;;;;;;5.47;4.73;;;5.80;99.90;5.60;98776.00;;;;4905724;28;110687;-69
2023/01/09 05:03:29;;;;;;;11.70;5.43;;;5.80;99.90;5.60;98781.00;;;;4904458;28;92907;-69
2023/01/09 05:05:55;;;;;;;9.43;5.50;;;5.70;99.90;5.60;98779.00;;;;4905973;28;120628;-68
2023/01/09 05:08:20;;;;;;;13.03;6.57;;;5.70;99.90;5.60;98777.00;;;;4904140;28;120940;-67
2023/01/09 05:10:46;;;;;;;9.70;6.27;;;5.70;99.90;5.60;98785.00;;;;4894207;28;110766;-68
2023/01/09 05:13:11;;;;;;;12.53;6.23;;;5.70;99.90;5.60;98780.00;;;;4889698;28;108513;-67
2023/01/09 05:15:37;;;;;;;7.43;5.77;;;5.70;99.90;5.60;98788.00;;;;4906469;28;123218;-67
2023/01/09 05:18:03;;;;;;;7.13;5.60;;;5.70;99.90;5.60;98796.00;;;;4907557;28;97072;-68
2023/01/09 05:20:28;;;;;;;8.93;5.70;;;5.70;99.90;5.50;98780.00;;;;4904073;28;109993;-68
2023/01/09 05:22:54;;;;;;;9.33;6.10;;;5.70;99.90;5.60;98776.00;;;;4906473;28;92929;-68
2023/01/09 05:25:20;;;;;;;7.10;6.40;;;5.70;99.90;5.50;98772.00;;;;4902781;28;123262;-68
2023/01/09 05:27:45;;;;;;;7.20;5.40;;;5.60;99.90;5.50;98772.00;;;;4904707;28;123477;-68
2023/01/09 05:30:12;;;;;;;8.13;5.57;;;6.50;99.90;5.60;98758.00;;;;4905134;28;110083;-67
2023/01/09 05:32:38;;;;;;;6.47;5.13;;;5.70;99.90;5.60;98758.00;;;;4904944;28;98854;-67
2023/01/09 05:35:05;;;;;;;9.47;5.47;;;5.70;99.90;5.60;98767.00;;;;4905678;28;114087;-67
2023/01/09 05:37:30;;;;;;;7.23;5.80;;;5.70;99.90;5.60;98751.00;;;;4903097;28;103342;-66
2023/01/09 05:39:56;;;;;;;9.30;5.97;;;5.70;99.90;5.50;98759.00;;;;4906430;28;110247;-66
2023/01/09 05:42:22;;;;;;;7.63;5.90;;;6.30;99.90;5.50;98756.00;;;;4907242;28;106869;-68
2023/01/09 05:44:47;;;;;;;11.77;6.83;;;5.60;99.90;5.50;98749.00;;;;4904126;28;122805;-67
2023/01/09 05:47:13;;;;;;;9.77;5.53;;;6.30;99.90;5.50;98748.00;;;;4905166;28;122444;-66
2023/01/09 05:49:39;;;;;;;6.47;5.27;;;5.60;99.90;5.50;98759.00;;;;4907853;28;109641;-66
2023/01/09 05:52:04;;;;;;;7.37;6.10;;;5.60;99.90;5.50;98764.00;;;;4904693;28;108453;-67
2023/01/09 05:54:30;;;;;;;10.47;6.10;;;5.60;99.90;5.50;98755.00;;;;4890763;28;93736;-66
2023/01/09 05:56:56;;;;;;;8.37;6.87;;;5.60;99.90;5.60;98749.00;;;;4902327;28;120696;-67
2023/01/09 05:59:21;;;;;;;7.20;6.43;;;5.70;99.90;5.60;98751.00;;;;4902785;28;109242;-66
2023/01/09 06:01:47;;;;;;;8.87;6.47;;;6.50;99.90;5.60;98751.00;;;;4891048;28;103899;-66
2023/01/09 06:04:13;;;;;;;11.37;4.80;;;5.70;99.90;5.60;98750.00;;;;4877606;28;122293;-66
2023/01/09 06:06:39;;;;;;;10.73;5.70;;;6.60;99.90;5.60;98749.00;;;;4901599;28;122586;-66
2023/01/09 06:09:06;;;;;;;14.50;6.47;;;5.70;99.90;5.60;98751.00;;;;4906992;28;92907;-66
2023/01/09 06:11:34;;;;;;;14.17;6.00;;;5.70;99.90;5.60;98755.00;;;;4903794;28;93076;-66
2023/01/09 06:14:00;;;;;;;8.17;5.50;;;5.70;99.90;5.60;98755.00;;;;4905256;28;93298;-67
2023/01/09 06:16:26;;;;;;;8.97;5.10;;;5.70;99.90;5.60;98751.00;;;;4906064;28;93801;-66
2023/01/09 06:18:52;;;;;;;7.13;4.70;;;5.80;99.90;5.60;98753.00;;;;4906106;28;110804;-67
2023/01/09 06:21:18;;;;;;;9.73;5.60;;;5.80;99.90;5.70;98751.00;;;;4907806;28;92896;-67
2023/01/09 06:23:43;;;;;;;10.57;5.63;;;5.80;99.90;5.70;98750.00;;;;4902316;28;107312;-66
2023/01/09 06:26:09;;;;;;;8.00;5.63;;;5.80;99.90;5.70;98752.00;;;;4906366;28;118701;-66
2023/01/09 06:28:34;;;;;;;12.53;5.77;;;6.40;99.90;5.60;98760.00;;;;4904062;28;109516;-66
2023/01/09 06:31:00;;;;;;;10.97;5.53;;;5.50;99.90;5.60;98755.00;;;;4906239;28;108130;-66
2023/01/09 06:33:26;;;;;;;9.47;5.73;;;5.80;99.90;5.70;98748.00;;;;4900800;28;123263;-67
2023/01/09 06:35:51;;;;;;;8.50;5.97;;;5.90;99.90;5.70;98740.00;;;;4885815;28;114227;-66
2023/01/09 06:38:17;;;;;;;9.30;6.00;;;5.70;99.90;5.60;98747.00;;;;4904541;28;101701;-66
2023/01/09 06:40:43;;;;;;;9.10;5.70;;;5.80;99.90;5.70;98750.00;;;;4907867;28;108867;-66
2023/01/09 06:43:09;;;;;;;11.10;6.00;;;6.30;99.90;5.70;98763.00;;;;4907218;28;122183;-65
2023/01/09 06:45:34;;;;;;;6.97;6.03;;;6.60;99.90;5.70;98765.00;;;;4902486;28;121727;-66
2023/01/09 06:48:00;;;;;;;9.10;6.47;;;5.90;99.90;5.70;98774.00;;;;4876770;28;101341;-65
2023/01/09 06:50:26;;;;;;;7.23;5.27;;;5.80;99.90;5.70;98775.00;;;;4902602;28;93836;-65
2023/01/09 06:52:51;;;;;;;10.70;6.60;;;5.80;99.90;5.70;98774.00;;;;4905214;28;100409;-65
2023/01/09 06:55:17;;;;;;;9.43;5.63;;;6.10;99.90;5.70;98771.00;;;;4903074;28;93258;-65
2023/01/09 06:57:43;;;;;;;8.27;5.73;;;6.30;99.90;5.60;98774.00;;;;4907855;28;95516;-66
2023/01/09 07:00:10;;;;;;;9.17;4.77;;;6.50;99.90;5.60;98784.00;;;;4905651;28;109971;-66
2023/01/09 07:02:35;;;;;;;11.33;5.93;;;5.80;99.90;5.60;98782.00;;;;4904195;28;93240;-65
2023/01/09 07:05:02;;;;;;;7.67;5.93;;;6.50;99.90;5.60;98777.00;;;;4903181;28;112850;-65
2023/01/09 07:07:27;;;;;;;10.40;6.20;;;6.10;99.90;5.60;98784.00;;;;4905321;28;92380;-65
2023/01/09 07:09:53;;;;;;;9.70;6.57;;;5.60;99.90;5.60;98780.00;;;;4902892;28;110102;-65
2023/01/09 07:12:19;;;;;;;8.63;6.77;;;5.60;99.90;5.60;98783.00;;;;4903521;28;120166;-65
2023/01/09 07:14:44;;;;;;;12.70;6.37;;;6.40;99.90;5.50;98785.00;;;;4905485;28;94033;-65
2023/01/09 07:17:12;;;;;;;9.17;6.10;;;5.70;99.90;5.50;98785.00;;;;4902017;28;93070;-65
2023/01/09 07:19:38;;;;;;;10.03;6.43;;;6.00;99.90;5.50;98781.00;;;;4900955;28;93038;-65
2023/01/09 07:22:03;;;;;;;9.63;6.33;;;6.30;99.90;5.50;98776.00;;;;4889706;28;122326;-65
2023/01/09 07:24:29;;;;;;;6.80;5.40;;;5.70;99.90;5.50;98792.00;;;;4906511;28;121919;-65
2023/01/09 07:26:55;;;;;;;9.67;5.60;;;5.70;99.90;5.50;98773.00;;;;4905521;28;93072;-66
2023/01/09 07:29:20;;;;;;;8.03;5.77;;;6.40;99.90;5.50;98776.00;;;;4903102;28;92814;-66
2023/01/09 07:31:46;;;;;;;9.10;5.57;;;6.40;99.90;5.50;98776.00;;;;4907780;28;92214;-64
2023/01/09 07:34:12;;;;;;;9.47;5.90;;;6.40;99.90;5.50;98786.00;;;;4905832;28;92834;-65
2023/01/09 07:36:38;;;;;;;8.80;5.53;;;5.60;99.90;5.50;98792.00;;;;4905488;28;92944;-65
2023/01/09 07:39:03;;;;;;;9.37;6.27;;;6.20;99.90;5.50;98780.00;;;;4904518;28;105794;-66
2023/01/09 07:41:29;;;;;;;10.63;6.30;;;5.60;99.90;5.50;98775.00;;;;4907743;28;93242;-66
2023/01/09 07:43:56;;;;;;;7.77;5.53;;;5.70;99.90;5.50;98775.00;;;;4908003;28;92368;-66
2023/01/09 07:46:22;;;;;;;11.73;6.27;;;5.70;99.90;5.50;98780.00;;;;4905436;28;93727;-65
2023/01/09 07:48:47;;;;;;;13.67;6.13;;;5.50;99.90;5.50;98777.00;;;;4905242;28;92902;-65
2023/01/09 07:51:13;;;;;;;8.50;5.63;;;5.60;99.90;5.50;98775.00;;;;4902477;28;121387;-65
2023/01/09 07:53:40;;;;;;;12.00;6.03;;;5.60;99.90;5.50;98767.00;;;;4904678;28;93054;-65
2023/01/09 07:56:06;;;;;;;11.73;5.83;;;6.00;99.90;5.50;98778.00;;;;4903757;28;92222;-63
2023/01/09 07:58:31;;;;;;;9.57;5.23;;;5.70;99.90;5.50;98771.00;;;;4903099;28;94626;-64
2023/01/09 08:00:57;;;;;;;7.93;4.87;;;6.10;99.90;5.50;98779.00;;;;4905015;28;123465;-64
2023/01/09 08:03:23;;;;;;;6.47;4.53;;;5.60;99.90;5.50;98777.00;;;;4906268;28;110475;-65
2023/01/09 08:05:48;;;;;;;7.03;5.27;;;5.60;99.90;5.50;98773.00;;;;4902447;28;93301;-66
2023/01/09 08:08:14;;;;;;;6.27;4.83;;;5.60;99.90;5.50;98772.00;;;;4907175;28;108934;-64
2023/01/09 08:10:40;;;;;;;8.63;4.80;;;5.70;99.90;5.50;98778.00;;;;4904229;28;123071;-65
2023/01/09 08:13:06;;;;;;;9.90;6.00;;;6.30;99.90;5.50;98775.00;;;;4898542;28;110583;-65
2023/01/09 08:15:32;;;;;;;8.20;5.47;;;5.60;99.90;5.50;98787.00;;;;4903318;28;111535;-65
2023/01/09 08:17:58;;;;;;;6.80;5.47;;;5.70;99.90;5.50;98786.00;;;;4902112;28;92733;-64
2023/01/09 08:20:24;;;;;;;7.93;6.13;;;6.60;99.90;5.50;98787.00;;;;4903409;28;122325;-64
2023/01/09 08:22:50;;;;;;;9.13;5.33;;;5.60;99.90;5.50;98793.00;;;;4902934;28;93062;-64
2023/01/09 08:25:17;;;;;;;10.77;6.40;;;5.70;99.90;5.60;98800.00;;;;4902019;28;93029;-64
2023/01/09 08:27:42;;;;;;;9.30;4.77;;;6.10;99.90;5.60;98798.00;;;;4904751;28;95605;-64
2023/01/09 08:30:10;;;;;;;12.47;7.30;;;5.70;99.90;5.60;98784.00;;;;4903962;28;102874;-65
2023/01/09 08:32:36;;;;;;;7.93;5.70;;;5.80;99.90;5.60;98791.00;;;;4907118;28;104329;-64
2023/01/09 08:35:02;;;;;;;7.63;4.57;;;6.60;99.90;5.70;98810.00;;;;4908271;28;93025;-64
2023/01/09 08:37:28;;;;;;;9.57;5.97;;;5.80;99.90;5.70;98804.00;;;;4886024;28;92932;-64
2023/01/09 08:39:55;;;;;;;10.20;5.57;;;5.80;99.90;5.70;98802.00;;;;4907823;28;123175;-65
2023/01/09 08:47:51;;;;;;;7.43;5.83;;;5.80;99.90;5.80;98795.00;;;;4912785;28;93009;-65
2023/01/09 08:50:17;;;;;;;7.80;5.50;;;5.90;99.90;5.90;98811.00;;;;4915068;28;120875;-65
2023/01/09 08:52:42;;;;;;;8.83;5.23;;;6.00;99.90;5.90;98806.00;;;;4909334;28;121297;-65
2023/01/09 08:55:08;;;;;;;10.13;5.57;;;6.00;99.90;6.00;98813.00;;;;4907639;28;110757;-66
2023/01/09 08:57:34;;;;;;;5.60;5.10;;;6.10;99.90;6.10;98817.00;;;;4892824;28;108814;-65
2023/01/09 09:00:00;;;;;;;7.60;5.30;;;6.20;99.90;6.10;98821.00;;;;4905570;28;93939;-64
2023/01/09 09:02:26;;;;;;;10.37;5.40;;;6.30;99.90;6.20;98820.00;;;;4907719;28;105191;-64
2023/01/09 09:04:52;;;;;;;6.40;4.63;;;6.30;99.90;6.30;98817.00;;;;4909009;28;109671;-65
2023/01/09 09:07:25;;;;;;;7.07;4.40;;;6.70;99.90;6.30;98821.00;;;;4884484;28;92919;-64
2023/01/09 09:09:54;;;;;;;7.77;5.10;;;6.40;99.90;6.40;98826.00;;;;4906381;28;92288;-64
2023/01/09 09:12:21;;;;;;;6.93;4.60;;;6.50;99.90;6.50;98830.00;;;;4904167;28;122395;-67
2023/01/09 09:17:32;;;;;;;6.27;4.77;;;6.70;99.90;6.60;98825.00;;;;4903356;28;94224;-65
2023/01/09 09:19:58;;;;;;;8.47;5.37;;;6.70;99.90;6.60;98826.00;;;;4905149;28;93691;-64
2023/01/09 09:22:24;;;;;;;8.07;5.17;;;7.40;99.90;6.70;98830.00;;;;4904257;28;93561;-65
2023/01/09 09:24:50;;;;;;;7.10;4.60;;;6.80;99.90;6.70;98835.00;;;;4910218;28;93604;-63
2023/01/09 09:27:16;;;;;;;7.60;4.43;;;7.40;99.90;6.80;98831.00;;;;4909257;28;108432;-63
2023/01/09 09:29:41;;;;;;;7.97;4.63;;;7.60;99.90;6.80;98838.00;;;;4908033;28;122152;-63
2023/01/09 09:32:07;;;;;;;7.47;4.10;;;6.90;99.90;6.90;98842.00;;;;4909195;28;122815;-66
2023/01/09 09:34:33;;;;;;;5.73;4.00;;;7.40;99.90;6.90;98834.00;;;;4904824;28;109444;-66
2023/01/09 09:36:58;;;;;;;6.97;4.30;;;7.00;99.90;6.90;98845.00;;;;4905840;28;92818;-65
2023/01/09 09:39:24;;;;;;;3.93;3.10;;;7.00;99.90;7.00;98860.00;;;;4906566;28;122941;-65
2023/01/09 09:45:25;;;;;;;5.50;3.50;;;7.10;99.90;7.00;98845.00;;;;4892202;28;92924;-67
2023/01/09 09:48:37;;;;;;;6.43;3.43;;;7.20;99.90;7.00;98850.00;;;;4902448;28;94333;-66
2023/01/09 09:51:47;;;;;;;8.47;3.93;;;7.20;99.90;7.10;98863.00;;;;4883492;28;93184;-65
2023/01/09 09:54:17;;;;;;;8.17;4.00;;;7.20;99.90;7.10;98868.00;;;;4902238;28;92984;-66
2023/01/09 09:56:55;;;;;;;5.97;4.47;;;7.30;99.90;7.20;98870.00;;;;4903997;28;102494;-66
2023/01/09 09:59:26;;;;;;;7.13;3.40;;;7.70;99.90;7.20;98869.00;;;;4885551;28;92972;-66
2023/01/09 10:02:15;;;;;;;6.47;3.87;;;7.90;99.90;7.20;98869.00;;;;4880573;28;117278;-66
2023/01/09 10:04:48;;;;;;;5.87;3.90;;;7.50;99.90;7.30;98886.00;;;;4882933;28;111265;-66
2023/01/09 10:07:26;;;;;;;6.17;3.53;;;7.40;99.90;7.30;98886.00;;;;4890353;28;92881;-64
2023/01/09 10:09:59;;;;;;;3.43;2.73;;;7.80;99.90;7.30;98873.00;;;;4907787;28;94640;-65
2023/01/09 10:12:44;;;;;;;5.13;2.93;;;7.40;99.90;7.40;98873.00;;;;4906904;28;93734;-65
2023/01/09 10:15:45;;;;;;;5.27;3.63;;;7.50;99.90;7.40;98858.00;;;;4881258;28;93558;-65
2023/01/09 10:18:40;;;;;;;3.83;2.77;;;7.50;99.90;7.40;98859.00;;;;4890569;28;93025;-64
2023/01/09 10:21:43;;;;;;;6.00;3.30;;;7.50;99.90;7.50;98858.00;;;;4890789;28;93402;-67
2023/01/09 10:24:44;;;;;;;6.00;3.10;;;7.70;99.90;7.60;98866.00;;;;4907201;28;93735;-67
2023/01/09 10:27:32;;;;;;;2.80;2.40;;;7.70;99.90;7.70;98861.00;;;;4906467;28;92927;-66
2023/01/09 10:30:19;;;;;;;3.70;3.03;;;7.80;99.90;7.90;98868.00;;;;4901855;28;92308;-66
2023/01/09 10:33:32;;;;;;;3.67;2.67;;;8.00;99.90;7.90;98888.00;;;;4906150;28;92965;-66
2023/01/09 10:36:43;;;;;;;3.90;2.60;;;8.00;99.90;8.10;98880.00;;;;4866415;28;93212;-68
2023/01/09 10:39:17;;;;;;;2.53;2.00;;;8.40;99.90;8.20;98896.00;;;;4905110;28;108504;-66
2023/01/09 10:42:19;;;;;;;2.37;1.93;;;8.30;99.90;8.30;98890.00;;;;4908321;28;92751;-67
2023/01/09 10:44:55;;;;;;;1.93;1.40;;;8.40;99.90;8.40;98897.00;;;;4880661;28;93377;-66
2023/01/09 10:47:27;;;;;;;1.63;1.17;;;8.50;99.90;8.50;98894.00;;;;4902046;28;110553;-67
2023/01/09 10:49:54;;;;;;;4.13;2.00;;;8.50;99.90;8.60;98891.00;;;;4893039;28;93622;-67
2023/01/09 10:52:29;;;;;;;1.20;1.10;;;8.60;99.90;8.60;98911.00;;;;4886996;28;110645;-66
2023/01/09 10:55:02;;;;;;;1.50;0.90;;;8.70;99.90;8.70;98912.00;;;;4892827;28;100768;-66
2023/01/09 10:57:57;;;;;;;2.23;1.53;;;8.80;99.90;8.70;98914.00;;;;4891655;28;112410;-66
2023/01/09 11:00:24;;;;;;;3.63;0.80;;;8.80;99.90;8.80;98913.00;;;;4900822;28;92880;-66
2023/01/09 11:02:52;;;;;;;0.67;0.67;;;8.90;99.90;8.80;98921.00;;;;4888256;28;103425;-65
2023/01/09 11:05:27;;;;;;;0.57;0.57;;;8.90;99.90;8.90;98926.00;;;;4902749;28;93926;-67
2023/01/09 11:08:03;;;;;;;1.53;1.00;;;9.00;99.90;8.90;98933.00;;;;4905567;28;103383;-65
2023/01/09 11:10:48;;;;;;;1.03;0.90;;;9.00;99.90;8.90;98926.00;;;;4889007;28;111595;-67
2023/01/09 11:13:20;;;;;;;1.60;1.07;;;9.00;99.90;9.00;98925.00;;;;4901978;28;104406;-66
2023/01/09 11:15:59;;;;;;;0.50;0.50;;;9.10;99.90;9.00;98929.00;;;;4889445;28;92976;-66
2023/01/09 11:18:26;;;;;;;1.00;0.67;;;9.00;99.90;9.00;98943.00;;;;4874976;28;93027;-67
2023/01/09 11:20:52;;;;;;;2.33;0.80;;;9.00;99.90;9.10;98937.00;;;;4890676;28;93216;-67
2023/01/09 11:23:32;;;;;;;0.80;0.50;;;9.20;99.90;9.10;98950.00;;;;4907386;28;92214;-66
2023/01/09 11:26:02;;;;;;;2.37;0.77;;;9.20;99.90;9.10;98955.00;;;;4903987;28;92816;-67
2023/01/09 11:28:28;;;;;;;0.70;0.53;;;9.20;99.90;9.10;98947.00;;;;4904533;28;94938;-67
2023/01/09 11:31:03;;;;;;;1.50;0.57;;;9.20;99.90;9.20;98958.00;;;;4887905;28;93947;-66
2023/01/09 11:33:34;;;;;;;0.20;0.20;;;9.30;99.90;9.20;98960.00;;;;4903528;28;101962;-66
2023/01/09 11:36:12;;;;;;;2.43;0.43;;;9.20;99.90;9.20;98959.00;;;;4888555;28;93108;-67
2023/01/09 11:39:04;;;;;;;0.40;0.40;;;9.30;99.90;9.20;98955.00;;;;4904442;28;109571;-68